Bretagne — FNBR — position and weather

sailwx.info

Track history (hours):
 
Tides and Currents Weather Stations Pressure Air Temp Water Temp Dewpoint Dewpoint Depression Visibility Wind Speed Wind Dir Waves Ship Positions

Bretagne

Operator: Brittany Ferries

Last reported at 2016-Aug-31 03:34 UTC. Time now 2016-Aug-31 04:24 UTC.
Position N 49°12' W 002°22'.

Length 151 m; beam 27 m.

Type: Ship. MMSI: 227286000.

Date/timePositionNaut miles runAvg speedWind from/ knotsBaromVisibWave heightAir tempDewpointWater temp
2016-Aug-31 03:34N 49°12' W 002°22'1212.1
2016-Aug-31 02:34N 49°23' W 002°17'1313.4
2016-Aug-31 01:34N 49°36' W 002°08'1514.9
2016-Aug-31 00:33N 49°49' W 001°59'1716.9
2016-Aug-30 23:34N 50°03' W 001°44'1717.1
2016-Aug-30 22:33N 50°17' W 001°28'1616.3
2016-Aug-30 21:34N 50°30' W 001°13'1414.3
2016-Aug-30 20:33N 50°43' W 001°03'6 6.4
2016-Aug-30 19:34N 50°49' W 001°06'0 0.0
2016-Aug-30 18:33N 50°49' W 001°06'1 0.7
2016-Aug-30 17:33N 50°48' W 001°07'9 9.3
2016-Aug-30 16:33N 50°41' W 000°59'2019.7
2016-Aug-30 15:33N 50°25' W 001°17'1918.6
2016-Aug-30 14:33N 50°10' W 001°34'1817.4
2016-Aug-30 13:31N 49°55' W 001°50'1515.8
2016-Aug-30 12:33N 49°42' W 002°03'1616.4
2016-Aug-30 11:33N 49°27' W 002°14'1817.5
2016-Aug-30 10:33N 49°10' W 002°22'1919.4
2016-Aug-30 09:33N 48°52' W 002°17'1715.9
2016-Aug-30 08:31N 48°38' W 002°02'0 0.0
2016-Aug-30 07:22N 48°38' W 002°02'0 0.0
2016-Aug-30 06:19N 48°38' W 002°02'8 9.4
2016-Aug-30 05:26N 48°45' W 002°09'1516.4
2016-Aug-30 04:30N 48°58' W 002°22'1515.4
2016-Aug-30 03:33N 49°12' W 002°22'1313.0
2016-Aug-30 02:33N 49°25' W 002°16'1111.3
2016-Aug-30 01:33N 49°35' W 002°08'1413.6
2016-Aug-30 00:33N 49°48' W 002°00'1413.5
2016-Aug-29 23:33N 49°58' W 001°47'1515.3
2016-Aug-29 22:33N 50°11' W 001°35'1615.5
2016-Aug-29 21:33N 50°24' W 001°21'1514.8
2016-Aug-29 20:33N 50°36' W 001°08'1111.1
2016-Aug-29 19:34N 50°47' W 001°06'2 1.7
2016-Aug-29 18:33N 50°49' W 001°06'0 0.0
2016-Aug-29 17:33N 50°49' W 001°06'4 3.5
2016-Aug-29 16:33N 50°45' W 001°05'3918.1
2016-Aug-29 14:24N 50°11' W 001°34'1618.3
2016-Aug-29 13:30N 49°58' W 001°49'34 2.1
2016-Aug-28 21:22N 50°26' W 001°19'1215.1
2016-Aug-28 20:33N 50°36' W 001°08'1110.6
2016-Aug-28 19:33N 50°47' W 001°06'2 1.8
2016-Aug-28 18:31N 50°49' W 001°06'0 0.0
2016-Aug-28 17:33N 50°49' W 001°06'4 3.5
2016-Aug-28 16:33N 50°45' W 001°05'1614.9
2016-Aug-28 15:29N 50°30' W 001°14'76 5.8
2016-Aug-28 02:19N 49°25' W 002°15'8 9.8
2016-Aug-28 01:31N 49°32' W 002°11'1110.6
2016-Aug-28 00:29N 49°42' W 002°05'1414.8
2016-Aug-27 23:34N 49°54' W 001°53'1616.3
2016-Aug-27 22:34N 50°07' W 001°39'1616.0
2016-Aug-27 21:33N 50°21' W 001°25'1616.2
2016-Aug-27 20:34N 50°34' W 001°11'1312.6
2016-Aug-27 19:34N 50°46' W 001°05'3 2.5
2016-Aug-27 18:31N 50°49' W 001°06'0 0.0
2016-Aug-27 17:31N 50°49' W 001°06'3 3.4
2016-Aug-27 16:34N 50°45' W 001°05'1515.0
2016-Aug-27 15:33N 50°31' W 001°14'7917.9
2016-Aug-27 11:08N 49°24' W 002°17'27 4.1
2016-Aug-27 04:31N 48°56' W 002°22'1414.7
2016-Aug-27 03:34N 49°10' W 002°23'1312.7
2016-Aug-27 02:33N 49°23' W 002°17'1111.0
2016-Aug-27 01:33N 49°33' W 002°11'1211.8
2016-Aug-27 00:33N 49°43' W 002°03'1313.3
2016-Aug-26 23:33N 49°54' W 001°51'1615.5
2016-Aug-26 22:33N 50°07' W 001°38'1616.2
2016-Aug-26 21:33N 50°21' W 001°24'1716.5
2016-Aug-26 20:34N 50°34' W 001°10'1212.4
2016-Aug-26 19:34N 50°47' W 001°06'2 2.0
2016-Aug-26 18:32N 50°49' W 001°06'0 0.0
2016-Aug-26 17:32N 50°49' W 001°06'3 2.9
2016-Aug-26 16:34N 50°46' W 001°05'1514.6
2016-Aug-26 15:34N 50°32' W 001°12'1616.2
2016-Aug-26 14:34N 50°19' W 001°27'1817.6
2016-Aug-26 13:34N 50°05' W 001°43'1818.2
2016-Aug-26 12:33N 49°50' W 001°60'2819.1
2016-Aug-26 11:06N 49°22' W 001°57'916.8
2016-Aug-26 10:33N 49°14' W 001°51'1716.6
2016-Aug-26 09:33N 48°57' W 001°56'1917.4
2016-Aug-26 08:29N 48°39' W 002°03'1 1.4
2016-Aug-26 07:31N 48°38' W 002°02'0 0.0
2016-Aug-26 06:31N 48°38' W 002°02'16 7.1
2016-Aug-26 04:14N 48°51' W 002°17'2916.8
2016-Aug-26 02:29N 49°20' W 002°19'1515.8
2016-Aug-26 01:31N 49°35' W 002°11'1413.3
2016-Aug-26 00:30N 49°47' W 002°01'1313.7
2016-Aug-25 23:33N 49°58' W 001°51'1715.1
2016-Aug-25 22:26N 50°11' W 001°35'1415.3
2016-Aug-25 21:33N 50°23' W 001°23'1515.5
2016-Aug-25 20:33N 50°35' W 001°09'1211.6
2016-Aug-25 19:33N 50°47' W 001°06'2 2.1
2016-Aug-25 18:32N 50°49' W 001°06'0 0.0
2016-Aug-25 17:32N 50°49' W 001°06'3 3.3
2016-Aug-25 16:34N 50°46' W 001°05'1514.7
2016-Aug-25 15:33N 50°32' W 001°14'1817.9
2016-Aug-25 14:32N 50°18' W 001°33'1818.9
2016-Aug-25 13:34N 50°02' W 001°46'2420.6
2016-Aug-25 12:22N 49°39' W 002°02'1721.2
2016-Aug-25 11:33N 49°23' W 001°56'2019.6
2016-Aug-25 10:32N 49°03' W 001°51'1920.0
2016-Aug-25 09:33N 48°45' W 002°03'5 1.6
2016-Aug-25 06:31N 48°40' W 002°05'3114.1
2016-Aug-25 04:19N 49°09' W 002°23'1114.4
2016-Aug-25 03:34N 49°20' W 002°20'1414.1
2016-Aug-25 02:32N 49°33' W 002°10'1313.4
2016-Aug-25 01:33N 49°44' W 002°02'1211.9
2016-Aug-25 00:33N 49°54' W 001°50'1312.3
2016-Aug-24 23:28N 50°05' W 001°39'1213.5
2016-Aug-24 22:33N 50°15' W 001°29'1514.7
2016-Aug-24 21:33N 50°26' W 001°13'1514.9
2016-Aug-24 20:33N 50°38' W 000°59'1110.7
2016-Aug-24 19:33N 50°48' W 001°07'1 1.0
2016-Aug-24 18:31N 50°49' W 001°06'0 0.0
2016-Aug-24 17:31N 50°49' W 001°06'3 3.4
2016-Aug-24 16:33N 50°45' W 001°05'1514.9
2016-Aug-24 15:33N 50°31' W 001°13'1717.4
2016-Aug-24 14:33N 50°16' W 001°26'1818.2
2016-Aug-24 13:33N 50°02' W 001°43'1918.6
2016-Aug-24 12:33N 49°47' W 002°00'2218.7
2016-Aug-24 11:24N 49°25' W 001°57'1719.6
2016-Aug-24 10:33N 49°09' W 001°53'1818.1
2016-Aug-24 09:33N 48°51' W 001°59'1312.3
2016-Aug-24 08:30N 48°38' W 002°02'0 0.0
2016-Aug-24 07:30N 48°38' W 002°02'0 0.0
2016-Aug-24 06:31N 48°38' W 002°02'2713.9
2016-Aug-24 04:33N 49°02' W 002°23'1514.9
2016-Aug-24 03:33N 49°17' W 002°21'1515.0
2016-Aug-24 02:33N 49°31' W 002°12'1614.7
2016-Aug-24 01:30N 49°45' W 002°02'1712.8
2016-Aug-24 00:12N 49°58' W 001°46'2612.9
2016-Aug-23 22:10N 50°19' W 001°23'914.1
2016-Aug-23 21:33N 50°26' W 001°15'1414.3
2016-Aug-23 20:33N 50°37' W 001°01'1111.0
2016-Aug-23 19:33N 50°48' W 001°07'1 1.3
2016-Aug-23 18:33N 50°49' W 001°06'0 0.0
2016-Aug-23 17:33N 50°49' W 001°06'6 6.1
2016-Aug-23 16:33N 50°43' W 001°03'1414.4
2016-Aug-23 15:33N 50°31' W 001°14'3415.5
2016-Aug-23 13:22N 50°02' W 001°43'65 7.2
2016-Aug-23 04:15N 49°02' W 002°23'812.1
2016-Aug-23 03:33N 49°11' W 002°22'1313.1
2016-Aug-23 02:33N 49°23' W 002°17'1515.3
2016-Aug-23 01:33N 49°37' W 002°08'1514.7
2016-Aug-23 00:33N 49°50' W 001°56'1313.0
2016-Aug-22 23:33N 49°60' W 001°43'1313.2
2016-Aug-22 22:33N 50°11' W 001°32'1515.3
2016-Aug-22 21:33N 50°23' W 001°18'1515.5
2016-Aug-22 20:33N 50°35' W 001°03'1212.1
2016-Aug-22 19:34N 50°47' W 001°07'1 1.4
2016-Aug-22 18:31N 50°49' W 001°06'0 0.0
2016-Aug-22 17:31N 50°49' W 001°06'2 2.0
2016-Aug-22 16:33N 50°47' W 001°06'1211.9
2016-Aug-22 15:33N 50°35' W 001°09'1413.3
2016-Aug-22 14:28N 50°22' W 001°20'1615.0
2016-Aug-22 13:25N 50°09' W 001°32'1719.8
2016-Aug-22 12:33N 49°55' W 001°47'6319.5
2016-Aug-22 09:19N 48°52' W 001°59'1317.7
2016-Aug-22 08:33N 48°38' W 002°02'0 0.1
2016-Aug-22 07:30N 48°38' W 002°02'0 0.0
2016-Aug-22 06:33N 48°38' W 002°02'7 7.1
2016-Aug-22 05:31N 48°44' W 002°09'1717.6
2016-Aug-22 04:34N 48°59' W 002°22'1514.6
2016-Aug-22 03:33N 49°13' W 002°22'1313.2
2016-Aug-22 02:33N 49°26' W 002°15'1312.7
2016-Aug-22 01:30N 49°38' W 002°06'1616.0
2016-Aug-22 00:31N 49°50' W 001°51'1313.3
2016-Aug-21 23:31N 50°00' W 001°38'1212.5
2016-Aug-21 22:32N 50°11' W 001°28'1413.9
2016-Aug-21 21:33N 50°24' W 001°20'1414.3
2016-Aug-21 20:34N 50°36' W 001°08'1211.8
2016-Aug-21 19:33N 50°47' W 001°06'2 1.5
2016-Aug-21 18:32N 50°49' W 001°06'0 0.0
2016-Aug-21 17:32N 50°49' W 001°06'2 2.1
2016-Aug-21 16:33N 50°47' W 001°06'1313.2
2016-Aug-21 15:34N 50°34' W 001°11'  
Track history (hours):
 
Tides and Currents Weather Stations Pressure Air Temp Water Temp Dewpoint Dewpoint Depression Visibility Wind Speed Wind Dir Waves Ship Positions

Bretagne

Operator: Brittany Ferries

Last reported at 2016-Aug-31 03:34 UTC. Time now 2016-Aug-31 04:24 UTC.
Position N 49°12' W 002°22'.

Length 151 m; beam 27 m.

Type: Ship. MMSI: 227286000.

Date/timePositionNaut miles runAvg speedWind from/ knotsBaromVisibWave heightAir tempDewpointWater temp
2016-Aug-31 03:34N 49°12' W 002°22'1212.1
2016-Aug-31 02:34N 49°23' W 002°17'1313.4
2016-Aug-31 01:34N 49°36' W 002°08'1514.9
2016-Aug-31 00:33N 49°49' W 001°59'1716.9
2016-Aug-30 23:34N 50°03' W 001°44'1717.1
2016-Aug-30 22:33N 50°17' W 001°28'1616.3
2016-Aug-30 21:34N 50°30' W 001°13'1414.3
2016-Aug-30 20:33N 50°43' W 001°03'6 6.4
2016-Aug-30 19:34N 50°49' W 001°06'0 0.0
2016-Aug-30 18:33N 50°49' W 001°06'1 0.7
2016-Aug-30 17:33N 50°48' W 001°07'9 9.3
2016-Aug-30 16:33N 50°41' W 000°59'2019.7
2016-Aug-30 15:33N 50°25' W 001°17'1918.6
2016-Aug-30 14:33N 50°10' W 001°34'1817.4
2016-Aug-30 13:31N 49°55' W 001°50'1515.8
2016-Aug-30 12:33N 49°42' W 002°03'1616.4
2016-Aug-30 11:33N 49°27' W 002°14'1817.5
2016-Aug-30 10:33N 49°10' W 002°22'1919.4
2016-Aug-30 09:33N 48°52' W 002°17'1715.9
2016-Aug-30 08:31N 48°38' W 002°02'0 0.0
2016-Aug-30 07:22N 48°38' W 002°02'0 0.0
2016-Aug-30 06:19N 48°38' W 002°02'8 9.4
2016-Aug-30 05:26N 48°45' W 002°09'1516.4
2016-Aug-30 04:30N 48°58' W 002°22'1515.4
2016-Aug-30 03:33N 49°12' W 002°22'1313.0
2016-Aug-30 02:33N 49°25' W 002°16'1111.3
2016-Aug-30 01:33N 49°35' W 002°08'1413.6
2016-Aug-30 00:33N 49°48' W 002°00'1413.5
2016-Aug-29 23:33N 49°58' W 001°47'1515.3
2016-Aug-29 22:33N 50°11' W 001°35'1615.5
2016-Aug-29 21:33N 50°24' W 001°21'1514.8
2016-Aug-29 20:33N 50°36' W 001°08'1111.1
2016-Aug-29 19:34N 50°47' W 001°06'2 1.7
2016-Aug-29 18:33N 50°49' W 001°06'0 0.0
2016-Aug-29 17:33N 50°49' W 001°06'4 3.5
2016-Aug-29 16:33N 50°45' W 001°05'3918.1
2016-Aug-29 14:24N 50°11' W 001°34'1618.3
2016-Aug-29 13:30N 49°58' W 001°49'34 2.1
2016-Aug-28 21:22N 50°26' W 001°19'1215.1
2016-Aug-28 20:33N 50°36' W 001°08'1110.6
2016-Aug-28 19:33N 50°47' W 001°06'2 1.8
2016-Aug-28 18:31N 50°49' W 001°06'0 0.0
2016-Aug-28 17:33N 50°49' W 001°06'4 3.5
2016-Aug-28 16:33N 50°45' W 001°05'1614.9
2016-Aug-28 15:29N 50°30' W 001°14'76 5.8
2016-Aug-28 02:19N 49°25' W 002°15'8 9.8
2016-Aug-28 01:31N 49°32' W 002°11'1110.6
2016-Aug-28 00:29N 49°42' W 002°05'1414.8
2016-Aug-27 23:34N 49°54' W 001°53'1616.3
2016-Aug-27 22:34N 50°07' W 001°39'1616.0
2016-Aug-27 21:33N 50°21' W 001°25'1616.2
2016-Aug-27 20:34N 50°34' W 001°11'1312.6
2016-Aug-27 19:34N 50°46' W 001°05'3 2.5
2016-Aug-27 18:31N 50°49' W 001°06'0 0.0
2016-Aug-27 17:31N 50°49' W 001°06'3 3.4
2016-Aug-27 16:34N 50°45' W 001°05'1515.0
2016-Aug-27 15:33N 50°31' W 001°14'7917.9
2016-Aug-27 11:08N 49°24' W 002°17'27 4.1
2016-Aug-27 04:31N 48°56' W 002°22'1414.7
2016-Aug-27 03:34N 49°10' W 002°23'1312.7
2016-Aug-27 02:33N 49°23' W 002°17'1111.0
2016-Aug-27 01:33N 49°33' W 002°11'1211.8
2016-Aug-27 00:33N 49°43' W 002°03'1313.3
2016-Aug-26 23:33N 49°54' W 001°51'1615.5
2016-Aug-26 22:33N 50°07' W 001°38'1616.2
2016-Aug-26 21:33N 50°21' W 001°24'1716.5
2016-Aug-26 20:34N 50°34' W 001°10'1212.4
2016-Aug-26 19:34N 50°47' W 001°06'2 2.0
2016-Aug-26 18:32N 50°49' W 001°06'0 0.0
2016-Aug-26 17:32N 50°49' W 001°06'3 2.9
2016-Aug-26 16:34N 50°46' W 001°05'1514.6
2016-Aug-26 15:34N 50°32' W 001°12'1616.2
2016-Aug-26 14:34N 50°19' W 001°27'1817.6
2016-Aug-26 13:34N 50°05' W 001°43'1818.2
2016-Aug-26 12:33N 49°50' W 001°60'2819.1
2016-Aug-26 11:06N 49°22' W 001°57'916.8
2016-Aug-26 10:33N 49°14' W 001°51'1716.6
2016-Aug-26 09:33N 48°57' W 001°56'1917.4
2016-Aug-26 08:29N 48°39' W 002°03'1 1.4
2016-Aug-26 07:31N 48°38' W 002°02'0 0.0
2016-Aug-26 06:31N 48°38' W 002°02'16 7.1
2016-Aug-26 04:14N 48°51' W 002°17'2916.8
2016-Aug-26 02:29N 49°20' W 002°19'1515.8
2016-Aug-26 01:31N 49°35' W 002°11'1413.3
2016-Aug-26 00:30N 49°47' W 002°01'1313.7
2016-Aug-25 23:33N 49°58' W 001°51'1715.1
2016-Aug-25 22:26N 50°11' W 001°35'1415.3
2016-Aug-25 21:33N 50°23' W 001°23'1515.5
2016-Aug-25 20:33N 50°35' W 001°09'1211.6
2016-Aug-25 19:33N 50°47' W 001°06'2 2.1
2016-Aug-25 18:32N 50°49' W 001°06'0 0.0
2016-Aug-25 17:32N 50°49' W 001°06'3 3.3
2016-Aug-25 16:34N 50°46' W 001°05'1514.7
2016-Aug-25 15:33N 50°32' W 001°14'1817.9
2016-Aug-25 14:32N 50°18' W 001°33'1818.9
2016-Aug-25 13:34N 50°02' W 001°46'2420.6
2016-Aug-25 12:22N 49°39' W 002°02'1721.2
2016-Aug-25 11:33N 49°23' W 001°56'2019.6
2016-Aug-25 10:32N 49°03' W 001°51'1920.0
2016-Aug-25 09:33N 48°45' W 002°03'5 1.6
2016-Aug-25 06:31N 48°40' W 002°05'3114.1
2016-Aug-25 04:19N 49°09' W 002°23'1114.4
2016-Aug-25 03:34N 49°20' W 002°20'1414.1
2016-Aug-25 02:32N 49°33' W 002°10'1313.4
2016-Aug-25 01:33N 49°44' W 002°02'1211.9
2016-Aug-25 00:33N 49°54' W 001°50'1312.3
2016-Aug-24 23:28N 50°05' W 001°39'1213.5
2016-Aug-24 22:33N 50°15' W 001°29'1514.7
2016-Aug-24 21:33N 50°26' W 001°13'1514.9
2016-Aug-24 20:33N 50°38' W 000°59'1110.7
2016-Aug-24 19:33N 50°48' W 001°07'1 1.0
2016-Aug-24 18:31N 50°49' W 001°06'0 0.0
2016-Aug-24 17:31N 50°49' W 001°06'3 3.4
2016-Aug-24 16:33N 50°45' W 001°05'1514.9
2016-Aug-24 15:33N 50°31' W 001°13'1717.4
2016-Aug-24 14:33N 50°16' W 001°26'1818.2
2016-Aug-24 13:33N 50°02' W 001°43'1918.6
2016-Aug-24 12:33N 49°47' W 002°00'2218.7
2016-Aug-24 11:24N 49°25' W 001°57'1719.6
2016-Aug-24 10:33N 49°09' W 001°53'1818.1
2016-Aug-24 09:33N 48°51' W 001°59'1312.3
2016-Aug-24 08:30N 48°38' W 002°02'0 0.0
2016-Aug-24 07:30N 48°38' W 002°02'0 0.0
2016-Aug-24 06:31N 48°38' W 002°02'2713.9
2016-Aug-24 04:33N 49°02' W 002°23'1514.9
2016-Aug-24 03:33N 49°17' W 002°21'1515.0
2016-Aug-24 02:33N 49°31' W 002°12'1614.7
2016-Aug-24 01:30N 49°45' W 002°02'1712.8
2016-Aug-24 00:12N 49°58' W 001°46'2612.9
2016-Aug-23 22:10N 50°19' W 001°23'914.1
2016-Aug-23 21:33N 50°26' W 001°15'1414.3
2016-Aug-23 20:33N 50°37' W 001°01'1111.0
2016-Aug-23 19:33N 50°48' W 001°07'1 1.3
2016-Aug-23 18:33N 50°49' W 001°06'0 0.0
2016-Aug-23 17:33N 50°49' W 001°06'6 6.1
2016-Aug-23 16:33N 50°43' W 001°03'1414.4
2016-Aug-23 15:33N 50°31' W 001°14'3415.5
2016-Aug-23 13:22N 50°02' W 001°43'65 7.2
2016-Aug-23 04:15N 49°02' W 002°23'812.1
2016-Aug-23 03:33N 49°11' W 002°22'1313.1
2016-Aug-23 02:33N 49°23' W 002°17'1515.3
2016-Aug-23 01:33N 49°37' W 002°08'1514.7
2016-Aug-23 00:33N 49°50' W 001°56'1313.0
2016-Aug-22 23:33N 49°60' W 001°43'1313.2
2016-Aug-22 22:33N 50°11' W 001°32'1515.3
2016-Aug-22 21:33N 50°23' W 001°18'1515.5
2016-Aug-22 20:33N 50°35' W 001°03'1212.1
2016-Aug-22 19:34N 50°47' W 001°07'1 1.4
2016-Aug-22 18:31N 50°49' W 001°06'0 0.0
2016-Aug-22 17:31N 50°49' W 001°06'2 2.0
2016-Aug-22 16:33N 50°47' W 001°06'1211.9
2016-Aug-22 15:33N 50°35' W 001°09'1413.3
2016-Aug-22 14:28N 50°22' W 001°20'1615.0
2016-Aug-22 13:25N 50°09' W 001°32'1719.8
2016-Aug-22 12:33N 49°55' W 001°47'6319.5
2016-Aug-22 09:19N 48°52' W 001°59'1317.7
2016-Aug-22 08:33N 48°38' W 002°02'0 0.1
2016-Aug-22 07:30N 48°38' W 002°02'0 0.0
2016-Aug-22 06:33N 48°38' W 002°02'7 7.1
2016-Aug-22 05:31N 48°44' W 002°09'1717.6
2016-Aug-22 04:34N 48°59' W 002°22'1514.6
2016-Aug-22 03:33N 49°13' W 002°22'1313.2
2016-Aug-22 02:33N 49°26' W 002°15'1312.7
2016-Aug-22 01:30N 49°38' W 002°06'1616.0
2016-Aug-22 00:31N 49°50' W 001°51'1313.3
2016-Aug-21 23:31N 50°00' W 001°38'1212.5
2016-Aug-21 22:32N 50°11' W 001°28'1413.9
2016-Aug-21 21:33N 50°24' W 001°20'1414.3
2016-Aug-21 20:34N 50°36' W 001°08'1211.8
2016-Aug-21 19:33N 50°47' W 001°06'2 1.5
2016-Aug-21 18:32N 50°49' W 001°06'0 0.0
2016-Aug-21 17:32N 50°49' W 001°06'2 2.1
2016-Aug-21 16:33N 50°47' W 001°06'1313.2
2016-Aug-21 15:34N 50°34' W 001°11'  

Dump ship's entire track history